sensor_id;sensor_type;location;lat;lon;timestamp;pressure;altitude;pressure_sealevel;temperature;humidity
9249;BME280;4660;41.768;26.198;2023-04-05T00:01:41;100139.41;;;7.11;100.00
9249;BME280;4660;41.768;26.198;2023-04-05T00:04:07;100147.63;;;7.19;100.00
9249;BME280;4660;41.768;26.198;2023-04-05T00:06:33;100142.63;;;7.05;100.00
9249;BME280;4660;41.768;26.198;2023-04-05T00:09:00;100143.75;;;7.02;100.00
9249;BME280;4660;41.768;26.198;2023-04-05T00:11:27;100144.50;;;7.14;100.00
9249;BME280;4660;41.768;26.198;2023-04-05T00:13:54;100148.13;;;7.03;100.00
9249;BME280;4660;41.768;26.198;2023-04-05T00:16:20;100142.16;;;7.00;100.00
9249;BME280;4660;41.768;26.198;2023-04-05T00:18:46;100154.31;;;7.04;100.00
9249;BME280;4660;41.768;26.198;2023-04-05T00:21:22;100156.94;;;6.94;100.00
9249;BME280;4660;41.768;26.198;2023-04-05T00:23:53;100149.66;;;7.06;100.00
9249;BME280;4660;41.768;26.198;2023-04-05T00:26:20;100151.06;;;7.00;100.00
9249;BME280;4660;41.768;26.198;2023-04-05T00:28:49;100162.31;;;7.04;100.00
9249;BME280;4660;41.768;26.198;2023-04-05T00:31:15;100174.66;;;6.95;100.00
9249;BME280;4660;41.768;26.198;2023-04-05T00:33:40;100160.69;;;6.92;100.00
9249;BME280;4660;41.768;26.198;2023-04-05T00:38:35;100152.63;;;6.82;100.00
9249;BME280;4660;41.768;26.198;2023-04-05T00:41:01;100158.31;;;6.88;100.00
9249;BME280;4660;41.768;26.198;2023-04-05T00:43:27;100165.94;;;6.93;100.00
9249;BME280;4660;41.768;26.198;2023-04-05T00:45:52;100169.88;;;6.99;100.00
9249;BME280;4660;41.768;26.198;2023-04-05T00:48:19;100161.44;;;6.94;100.00
9249;BME280;4660;41.768;26.198;2023-04-05T00:50:48;100172.66;;;6.87;100.00
9249;BME280;4660;41.768;26.198;2023-04-05T00:53:14;100184.09;;;6.78;100.00
9249;BME280;4660;41.768;26.198;2023-04-05T00:55:40;100167.16;;;6.68;100.00
9249;BME280;4660;41.768;26.198;2023-04-05T00:58:06;100181.56;;;6.77;100.00
9249;BME280;4660;41.768;26.198;2023-04-05T01:00:36;100186.34;;;6.73;100.00
9249;BME280;4660;41.768;26.198;2023-04-05T01:03:05;100175.84;;;6.81;100.00
9249;BME280;4660;41.768;26.198;2023-04-05T01:08:13;100163.13;;;6.74;100.00
9249;BME280;4660;41.768;26.198;2023-04-05T01:10:43;100190.19;;;6.80;100.00
9249;BME280;4660;41.768;26.198;2023-04-05T01:13:11;100191.88;;;6.81;100.00
9249;BME280;4660;41.768;26.198;2023-04-05T01:15:36;100196.44;;;6.90;100.00
9249;BME280;4660;41.768;26.198;2023-04-05T01:18:03;100194.22;;;6.96;100.00
9249;BME280;4660;41.768;26.198;2023-04-05T01:20:33;100195.59;;;6.90;100.00
9249;BME280;4660;41.768;26.198;2023-04-05T01:34:47;100199.53;;;6.86;100.00
9249;BME280;4660;41.768;26.198;2023-04-05T01:37:17;100210.09;;;6.87;100.00
9249;BME280;4660;41.768;26.198;2023-04-05T01:39:44;100205.50;;;6.78;100.00
9249;BME280;4660;41.768;26.198;2023-04-05T01:42:12;100203.75;;;6.88;100.00
9249;BME280;4660;41.768;26.198;2023-04-05T01:44:38;100213.19;;;6.93;100.00
9249;BME280;4660;41.768;26.198;2023-04-05T01:47:03;100201.28;;;6.97;100.00
9249;BME280;4660;41.768;26.198;2023-04-05T01:49:29;100215.16;;;6.90;100.00
9249;BME280;4660;41.768;26.198;2023-04-05T01:51:55;100206.25;;;6.80;100.00
9249;BME280;4660;41.768;26.198;2023-04-05T01:54:20;100205.50;;;6.78;100.00
9249;BME280;4660;41.768;26.198;2023-04-05T01:56:46;100196.28;;;6.71;100.00
9249;BME280;4660;41.768;26.198;2023-04-05T01:59:11;100217.00;;;6.90;100.00
9249;BME280;4660;41.768;26.198;2023-04-05T02:01:37;100216.94;;;6.80;100.00
9249;BME280;4660;41.768;26.198;2023-04-05T02:04:02;100218.44;;;6.94;100.00
9249;BME280;4660;41.768;26.198;2023-04-05T02:06:28;100207.22;;;7.00;100.00
9249;BME280;4660;41.768;26.198;2023-04-05T02:08:55;100215.03;;;7.13;100.00
9249;BME280;4660;41.768;26.198;2023-04-05T02:11:20;100232.25;;;6.99;100.00
9249;BME280;4660;41.768;26.198;2023-04-05T02:13:46;100226.25;;;7.07;100.00
9249;BME280;4660;41.768;26.198;2023-04-05T02:16:11;100235.25;;;7.06;100.00
9249;BME280;4660;41.768;26.198;2023-04-05T02:18:37;100233.69;;;6.82;100.00
9249;BME280;4660;41.768;26.198;2023-04-05T02:21:07;100227.63;;;6.80;100.00
9249;BME280;4660;41.768;26.198;2023-04-05T02:23:37;100235.38;;;6.83;100.00
9249;BME280;4660;41.768;26.198;2023-04-05T02:26:02;100240.03;;;6.70;100.00
9249;BME280;4660;41.768;26.198;2023-04-05T02:28:28;100255.66;;;6.65;100.00
9249;BME280;4660;41.768;26.198;2023-04-05T02:30:54;100247.84;;;6.73;100.00
9249;BME280;4660;41.768;26.198;2023-04-05T02:33:19;100254.16;;;6.72;100.00
9249;BME280;4660;41.768;26.198;2023-04-05T02:35:51;100252.91;;;6.76;100.00
9249;BME280;4660;41.768;26.198;2023-04-05T02:38:17;100259.56;;;6.82;100.00
9249;BME280;4660;41.768;26.198;2023-04-05T02:40:46;100259.06;;;6.88;100.00
9249;BME280;4660;41.768;26.198;2023-04-05T02:43:12;100259.94;;;6.77;100.00
9249;BME280;4660;41.768;26.198;2023-04-05T02:45:38;100263.59;;;6.76;100.00
9249;BME280;4660;41.768;26.198;2023-04-05T02:48:03;100256.81;;;6.72;100.00
9249;BME280;4660;41.768;26.198;2023-04-05T02:50:29;100262.19;;;6.72;100.00
9249;BME280;4660;41.768;26.198;2023-04-05T02:52:54;100254.88;;;6.74;100.00
9249;BME280;4660;41.768;26.198;2023-04-05T02:55:20;100263.81;;;6.84;100.00
9249;BME280;4660;41.768;26.198;2023-04-05T02:57:45;100243.84;;;6.68;100.00
9249;BME280;4660;41.768;26.198;2023-04-05T03:00:11;100265.94;;;7.02;100.00
9249;BME280;4660;41.768;26.198;2023-04-05T03:02:37;100258.84;;;6.80;100.00
9249;BME280;4660;41.768;26.198;2023-04-05T03:05:04;100275.00;;;6.78;100.00
9249;BME280;4660;41.768;26.198;2023-04-05T03:07:30;100273.09;;;6.69;100.00
9249;BME280;4660;41.768;26.198;2023-04-05T03:09:57;100276.25;;;6.74;100.00
9249;BME280;4660;41.768;26.198;2023-04-05T03:12:23;100285.13;;;6.75;100.00
9249;BME280;4660;41.768;26.198;2023-04-05T03:14:49;100283.56;;;6.72;100.00
9249;BME280;4660;41.768;26.198;2023-04-05T03:17:15;100288.16;;;6.70;100.00
9249;BME280;4660;41.768;26.198;2023-04-05T03:19:40;100293.84;;;6.77;100.00
9249;BME280;4660;41.768;26.198;2023-04-05T03:22:07;100286.22;;;6.72;100.00
9249;BME280;4660;41.768;26.198;2023-04-05T03:24:32;100280.88;;;6.72;100.00
9249;BME280;4660;41.768;26.198;2023-04-05T03:27:01;100292.97;;;6.87;100.00
9249;BME280;4660;41.768;26.198;2023-04-05T03:29:28;100277.81;;;6.77;100.00
9249;BME280;4660;41.768;26.198;2023-04-05T03:31:54;100283.44;;;6.74;100.00
9249;BME280;4660;41.768;26.198;2023-04-05T03:34:20;100301.63;;;6.80;100.00
9249;BME280;4660;41.768;26.198;2023-04-05T03:36:46;100293.50;;;6.70;100.00
9249;BME280;4660;41.768;26.198;2023-04-05T03:39:13;100293.00;;;6.76;100.00
9249;BME280;4660;41.768;26.198;2023-04-05T03:41:39;100283.22;;;6.66;100.00
9249;BME280;4660;41.768;26.198;2023-04-05T03:44:06;100311.50;;;6.68;100.00
9249;BME280;4660;41.768;26.198;2023-04-05T03:46:32;100306.03;;;6.70;100.00
9249;BME280;4660;41.768;26.198;2023-04-05T03:48:59;100306.16;;;6.68;100.00
9249;BME280;4660;41.768;26.198;2023-04-05T03:51:25;100299.84;;;6.69;100.00
9249;BME280;4660;41.768;26.198;2023-04-05T03:53:51;100311.00;;;6.74;100.00
9249;BME280;4660;41.768;26.198;2023-04-05T03:56:17;100317.47;;;6.60;100.00
9249;BME280;4660;41.768;26.198;2023-04-05T03:58:43;100317.97;;;6.66;100.00
9249;BME280;4660;41.768;26.198;2023-04-05T04:01:09;100317.63;;;6.59;100.00
9249;BME280;4660;41.768;26.198;2023-04-05T04:03:35;100329.38;;;6.68;100.00
9249;BME280;4660;41.768;26.198;2023-04-05T04:06:06;100312.50;;;6.56;100.00
9249;BME280;4660;41.768;26.198;2023-04-05T04:08:32;100337.03;;;6.61;100.00
9249;BME280;4660;41.768;26.198;2023-04-05T04:10:58;100338.88;;;6.60;100.00
9249;BME280;4660;41.768;26.198;2023-04-05T04:13:24;100315.78;;;6.59;100.00
9249;BME280;4660;41.768;26.198;2023-04-05T04:15:49;100331.41;;;6.75;100.00
9249;BME280;4660;41.768;26.198;2023-04-05T04:18:15;100330.69;;;6.73;100.00
9249;BME280;4660;41.768;26.198;2023-04-05T04:20:41;100313.13;;;6.48;100.00
9249;BME280;4660;41.768;26.198;2023-04-05T04:23:06;100318.59;;;6.47;100.00
9249;BME280;4660;41.768;26.198;2023-04-05T04:25:35;100343.31;;;6.71;100.00
9249;BME280;4660;41.768;26.198;2023-04-05T04:28:02;100343.00;;;6.65;100.00
9249;BME280;4660;41.768;26.198;2023-04-05T04:30:28;100355.13;;;6.69;100.00
9249;BME280;4660;41.768;26.198;2023-04-05T04:32:53;100361.56;;;6.66;100.00
9249;BME280;4660;41.768;26.198;2023-04-05T04:35:24;100337.19;;;6.48;100.00
9249;BME280;4660;41.768;26.198;2023-04-05T04:37:56;100351.38;;;6.60;100.00
9249;BME280;4660;41.768;26.198;2023-04-05T04:40:29;100357.16;;;6.76;100.00
9249;BME280;4660;41.768;26.198;2023-04-05T04:43:06;100358.91;;;6.98;100.00
9249;BME280;4660;41.768;26.198;2023-04-05T04:45:34;100358.00;;;6.77;100.00
9249;BME280;4660;41.768;26.198;2023-04-05T04:48:02;100360.59;;;6.99;100.00
9249;BME280;4660;41.768;26.198;2023-04-05T04:50:30;100367.06;;;6.97;100.00
9249;BME280;4660;41.768;26.198;2023-04-05T04:52:59;100359.34;;;6.82;100.00
9249;BME280;4660;41.768;26.198;2023-04-05T04:55:26;100346.00;;;6.71;100.00
9249;BME280;4660;41.768;26.198;2023-04-05T04:57:53;100369.91;;;6.84;100.00
9249;BME280;4660;41.768;26.198;2023-04-05T05:00:20;100372.00;;;6.69;100.00
9249;BME280;4660;41.768;26.198;2023-04-05T05:02:46;100374.81;;;6.79;100.00
9249;BME280;4660;41.768;26.198;2023-04-05T05:05:12;100382.06;;;6.88;100.00
9249;BME280;4660;41.768;26.198;2023-04-05T05:07:39;100340.19;;;6.66;100.00
9249;BME280;4660;41.768;26.198;2023-04-05T05:10:09;100364.66;;;6.94;100.00
9249;BME280;4660;41.768;26.198;2023-04-05T05:12:36;100379.94;;;7.03;100.00
9249;BME280;4660;41.768;26.198;2023-04-05T05:15:02;100377.41;;;7.01;100.00
9249;BME280;4660;41.768;26.198;2023-04-05T05:17:28;100389.19;;;6.99;100.00
9249;BME280;4660;41.768;26.198;2023-04-05T05:19:53;100396.69;;;7.16;100.00
9249;BME280;4660;41.768;26.198;2023-04-05T05:22:19;100389.38;;;7.18;100.00
9249;BME280;4660;41.768;26.198;2023-04-05T05:24:47;100386.97;;;7.15;100.00
9249;BME280;4660;41.768;26.198;2023-04-05T05:27:14;100405.22;;;6.99;100.00
9249;BME280;4660;41.768;26.198;2023-04-05T05:29:45;100395.50;;;6.98;100.00
9249;BME280;4660;41.768;26.198;2023-04-05T05:32:17;100362.00;;;6.82;100.00
9249;BME280;4660;41.768;26.198;2023-04-05T05:34:43;100405.06;;;7.11;100.00
9249;BME280;4660;41.768;26.198;2023-04-05T05:37:10;100350.56;;;6.92;100.00
9249;BME280;4660;41.768;26.198;2023-04-05T05:39:37;100409.41;;;7.24;100.00
9249;BME280;4660;41.768;26.198;2023-04-05T05:42:02;100397.75;;;7.13;100.00
9249;BME280;4660;41.768;26.198;2023-04-05T05:44:28;100411.81;;;7.27;100.00
9249;BME280;4660;41.768;26.198;2023-04-05T05:46:55;100385.28;;;7.35;100.00
9249;BME280;4660;41.768;26.198;2023-04-05T05:49:20;100411.47;;;7.52;100.00
9249;BME280;4660;41.768;26.198;2023-04-05T05:51:46;100382.56;;;7.46;100.00
9249;BME280;4660;41.768;26.198;2023-04-05T05:54:11;100403.59;;;7.51;100.00
9249;BME280;4660;41.768;26.198;2023-04-05T05:56:37;100401.63;;;7.73;100.00
9249;BME280;4660;41.768;26.198;2023-04-05T05:59:03;100409.91;;;7.70;100.00
9249;BME280;4660;41.768;26.198;2023-04-05T06:01:28;100400.50;;;7.76;100.00
9249;BME280;4660;41.768;26.198;2023-04-05T06:03:54;100393.00;;;7.70;100.00
9249;BME280;4660;41.768;26.198;2023-04-05T06:06:20;100413.97;;;7.65;100.00
9249;BME280;4660;41.768;26.198;2023-04-05T06:08:46;100399.97;;;7.40;100.00
9249;BME280;4660;41.768;26.198;2023-04-05T06:11:17;100424.53;;;7.45;100.00
9249;BME280;4660;41.768;26.198;2023-04-05T06:13:42;100418.16;;;7.58;100.00
9249;BME280;4660;41.768;26.198;2023-04-05T06:16:08;100404.22;;;7.64;100.00
9249;BME280;4660;41.768;26.198;2023-04-05T06:18:33;100431.56;;;7.79;100.00
9249;BME280;4660;41.768;26.198;2023-04-05T06:21:00;100436.28;;;8.17;100.00
9249;BME280;4660;41.768;26.198;2023-04-05T06:23:26;100435.03;;;8.00;100.00
9249;BME280;4660;41.768;26.198;2023-04-05T06:25:52;100434.75;;;7.93;100.00
9249;BME280;4660;41.768;26.198;2023-04-05T06:28:25;100409.47;;;7.86;100.00
9249;BME280;4660;41.768;26.198;2023-04-05T06:30:53;100402.28;;;7.87;100.00
9249;BME280;4660;41.768;26.198;2023-04-05T06:33:20;100431.47;;;8.11;100.00
9249;BME280;4660;41.768;26.198;2023-04-05T06:35:47;100413.22;;;8.05;100.00
9249;BME280;4660;41.768;26.198;2023-04-05T06:38:14;100436.94;;;8.30;100.00
9249;BME280;4660;41.768;26.198;2023-04-05T06:40:40;100433.50;;;8.28;100.00
9249;BME280;4660;41.768;26.198;2023-04-05T06:43:07;100451.25;;;8.40;100.00
9249;BME280;4660;41.768;26.198;2023-04-05T06:45:41;100433.78;;;8.25;100.00
9249;BME280;4660;41.768;26.198;2023-04-05T06:48:09;100446.22;;;8.26;100.00
9249;BME280;4660;41.768;26.198;2023-04-05T06:50:37;100455.94;;;8.27;100.00
9249;BME280;4660;41.768;26.198;2023-04-05T06:53:07;100460.31;;;8.28;100.00
9249;BME280;4660;41.768;26.198;2023-04-05T06:55:34;100455.41;;;8.33;100.00
9249;BME280;4660;41.768;26.198;2023-04-05T06:58:01;100461.88;;;8.51;100.00
9249;BME280;4660;41.768;26.198;2023-04-05T07:00:26;100461.94;;;8.61;100.00
9249;BME280;4660;41.768;26.198;2023-04-05T07:02:54;100444.69;;;8.64;100.00
9249;BME280;4660;41.768;26.198;2023-04-05T07:05:21;100468.47;;;8.78;100.00
9249;BME280;4660;41.768;26.198;2023-04-05T07:07:46;100471.69;;;9.12;100.00
9249;BME280;4660;41.768;26.198;2023-04-05T07:10:15;100467.50;;;9.29;100.00
9249;BME280;4660;41.768;26.198;2023-04-05T07:12:42;100464.97;;;9.37;100.00
9249;BME280;4660;41.768;26.198;2023-04-05T07:15:13;100483.31;;;9.42;100.00
9249;BME280;4660;41.768;26.198;2023-04-05T07:17:39;100486.53;;;9.26;100.00
9249;BME280;4660;41.768;26.198;2023-04-05T07:20:06;100470.84;;;9.12;100.00
9249;BME280;4660;41.768;26.198;2023-04-05T07:22:35;100465.34;;;9.23;100.00
9249;BME280;4660;41.768;26.198;2023-04-05T07:25:02;100487.00;;;9.60;100.00
9249;BME280;4660;41.768;26.198;2023-04-05T07:27:29;100486.75;;;9.73;100.00
9249;BME280;4660;41.768;26.198;2023-04-05T07:29:57;100482.63;;;9.88;100.00
9249;BME280;4660;41.768;26.198;2023-04-05T07:32:23;100463.81;;;9.69;100.00
9249;BME280;4660;41.768;26.198;2023-04-05T07:34:51;100493.81;;;9.93;100.00
9249;BME280;4660;41.768;26.198;2023-04-05T07:37:22;100500.59;;;9.87;100.00
9249;BME280;4660;41.768;26.198;2023-04-05T07:39:49;100496.75;;;10.09;100.00
9249;BME280;4660;41.768;26.198;2023-04-05T07:45:31;100511.31;;;10.36;100.00
9249;BME280;4660;41.768;26.198;2023-04-05T07:48:04;100507.75;;;10.35;100.00
9249;BME280;4660;41.768;26.198;2023-04-05T07:50:35;100512.44;;;10.43;100.00
9249;BME280;4660;41.768;26.198;2023-04-05T07:53:06;100496.16;;;10.35;100.00
9249;BME280;4660;41.768;26.198;2023-04-05T07:55:36;100470.84;;;10.18;100.00
9249;BME280;4660;41.768;26.198;2023-04-05T07:58:04;100515.41;;;10.40;100.00
9249;BME280;4660;41.768;26.198;2023-04-05T08:00:31;100500.50;;;10.55;100.00
9249;BME280;4660;41.768;26.198;2023-04-05T08:02:58;100515.50;;;10.48;100.00
9249;BME280;4660;41.768;26.198;2023-04-05T08:05:38;100501.69;;;10.43;100.00
9249;BME280;4660;41.768;26.198;2023-04-05T08:08:29;100532.88;;;10.63;100.00
9249;BME280;4660;41.768;26.198;2023-04-05T08:11:16;100520.03;;;10.47;100.00
9249;BME280;4660;41.768;26.198;2023-04-05T08:14:16;100432.56;;;9.87;100.00
9249;BME280;4660;41.768;26.198;2023-04-05T08:16:58;100416.81;;;10.11;100.00
9249;BME280;4660;41.768;26.198;2023-04-05T08:19:52;100475.38;;;10.37;100.00
9249;BME280;4660;41.768;26.198;2023-04-05T08:22:30;100535.38;;;10.28;100.00
9249;BME280;4660;41.768;26.198;2023-04-05T08:25:08;100444.75;;;9.72;100.00
9249;BME280;4660;41.768;26.198;2023-04-05T08:27:51;100446.13;;;9.85;100.00
9249;BME280;4660;41.768;26.198;2023-04-05T08:30:21;100460.13;;;9.99;100.00
9249;BME280;4660;41.768;26.198;2023-04-05T08:32:50;100508.44;;;10.47;100.00
9249;BME280;4660;41.768;26.198;2023-04-05T08:35:20;100510.56;;;10.53;100.00
9249;BME280;4660;41.768;26.198;2023-04-05T08:37:48;100485.00;;;10.30;100.00
9249;BME280;4660;41.768;26.198;2023-04-05T08:40:39;100464.63;;;10.27;100.00
9249;BME280;4660;41.768;26.198;2023-04-05T08:43:39;100540.53;;;10.68;100.00
9249;BME280;4660;41.768;26.198;2023-04-05T08:46:25;100466.59;;;10.06;100.00
9249;BME280;4660;41.768;26.198;2023-04-05T08:49:03;100402.94;;;10.06;100.00
9249;BME280;4660;41.768;26.198;2023-04-05T08:51:52;100557.31;;;10.89;100.00
9249;BME280;4660;41.768;26.198;2023-04-05T08:54:21;100501.59;;;10.62;100.00
9249;BME280;4660;41.768;26.198;2023-04-05T09:05:30;100528.66;;;10.98;100.00
9249;BME280;4660;41.768;26.198;2023-04-05T09:08:39;100471.91;;;10.54;100.00
9249;BME280;4660;41.768;26.198;2023-04-05T09:11:37;100563.53;;;10.90;100.00
9249;BME280;4660;41.768;26.198;2023-04-05T09:22:22;100523.34;;;11.16;100.00
9249;BME280;4660;41.768;26.198;2023-04-05T09:25:35;100536.69;;;11.80;100.00
9249;BME280;4660;41.768;26.198;2023-04-05T09:28:06;100478.25;;;11.36;100.00
9249;BME280;4660;41.768;26.198;2023-04-05T09:30:33;100563.94;;;11.50;100.00
9249;BME280;4660;41.768;26.198;2023-04-05T09:33:06;100457.66;;;10.71;100.00
9249;BME280;4660;41.768;26.198;2023-04-05T09:35:37;100529.00;;;11.40;100.00
9249;BME280;4660;41.768;26.198;2023-04-05T09:41:11;100484.81;;;11.33;100.00
9249;BME280;4660;41.768;26.198;2023-04-05T09:43:40;100468.97;;;11.30;100.00
9249;BME280;4660;41.768;26.198;2023-04-05T09:46:28;100564.41;;;11.91;100.00
9249;BME280;4660;41.768;26.198;2023-04-05T09:48:59;100471.59;;;11.40;100.00
9249;BME280;4660;41.768;26.198;2023-04-05T09:51:36;100448.22;;;11.13;100.00
9249;BME280;4660;41.768;26.198;2023-04-05T09:54:22;100573.91;;;11.67;100.00
9249;BME280;4660;41.768;26.198;2023-04-05T09:57:15;100549.63;;;11.49;100.00
9249;BME280;4660;41.768;26.198;2023-04-05T10:00:05;100523.72;;;11.66;100.00
9249;BME280;4660;41.768;26.198;2023-04-05T10:06:08;100561.66;;;11.82;100.00
9249;BME280;4660;41.768;26.198;2023-04-05T10:36:55;100531.25;;;10.90;100.00
9249;BME280;4660;41.768;26.198;2023-04-05T10:39:52;100563.16;;;11.12;100.00
9249;BME280;4660;41.768;26.198;2023-04-05T10:42:36;100518.53;;;10.82;100.00
9249;BME280;4660;41.768;26.198;2023-04-05T10:45:07;100506.09;;;10.71;100.00
9249;BME280;4660;41.768;26.198;2023-04-05T10:47:52;100432.88;;;10.40;100.00
9249;BME280;4660;41.768;26.198;2023-04-05T10:50:42;100570.94;;;11.15;100.00
9249;BME280;4660;41.768;26.198;2023-04-05T10:53:53;100489.50;;;10.76;100.00
9249;BME280;4660;41.768;26.198;2023-04-05T10:56:57;100539.09;;;11.11;100.00
9249;BME280;4660;41.768;26.198;2023-04-05T10:59:52;100490.94;;;11.08;100.00
9249;BME280;4660;41.768;26.198;2023-04-05T11:02:23;100470.84;;;11.20;100.00
9249;BME280;4660;41.768;26.198;2023-04-05T11:04:59;100526.34;;;11.76;100.00
9249;BME280;4660;41.768;26.198;2023-04-05T11:08:10;100473.59;;;11.55;100.00
9249;BME280;4660;41.768;26.198;2023-04-05T11:10:47;100444.97;;;11.54;100.00
9249;BME280;4660;41.768;26.198;2023-04-05T11:13:20;100568.34;;;12.14;100.00
9249;BME280;4660;41.768;26.198;2023-04-05T11:21:30;100482.97;;;11.34;100.00
9249;BME280;4660;41.768;26.198;2023-04-05T11:24:07;100562.03;;;11.88;100.00
9249;BME280;4660;41.768;26.198;2023-04-05T11:29:52;100542.63;;;11.84;100.00
9249;BME280;4660;41.768;26.198;2023-04-05T11:32:37;100486.91;;;11.39;100.00
9249;BME280;4660;41.768;26.198;2023-04-05T11:35:17;100503.59;;;11.78;100.00
9249;BME280;4660;41.768;26.198;2023-04-05T11:45:45;100564.25;;;11.92;100.00
9249;BME280;4660;41.768;26.198;2023-04-05T11:48:14;100565.75;;;11.87;100.00
9249;BME280;4660;41.768;26.198;2023-04-05T11:50:47;100563.41;;;11.92;100.00
9249;BME280;4660;41.768;26.198;2023-04-05T11:53:17;100564.94;;;11.49;100.00
9249;BME280;4660;41.768;26.198;2023-04-05T11:55:49;100551.19;;;11.52;100.00
9249;BME280;4660;41.768;26.198;2023-04-05T11:58:24;100552.47;;;11.30;100.00
9249;BME280;4660;41.768;26.198;2023-04-05T12:01:02;100513.91;;;11.02;100.00
9249;BME280;4660;41.768;26.198;2023-04-05T12:03:33;100560.66;;;11.28;100.00
9249;BME280;4660;41.768;26.198;2023-04-05T12:06:23;100575.34;;;11.44;100.00
9249;BME280;4660;41.768;26.198;2023-04-05T12:08:55;100568.53;;;11.22;100.00
9249;BME280;4660;41.768;26.198;2023-04-05T12:11:28;100570.94;;;11.15;100.00
9249;BME280;4660;41.768;26.198;2023-04-05T12:13:58;100541.16;;;10.89;100.00
9249;BME280;4660;41.768;26.198;2023-04-05T12:16:26;100490.31;;;10.49;100.00
9249;BME280;4660;41.768;26.198;2023-04-05T12:19:00;100532.22;;;10.52;100.00
9249;BME280;4660;41.768;26.198;2023-04-05T12:21:29;100561.47;;;10.64;100.00
9249;BME280;4660;41.768;26.198;2023-04-05T12:23:57;100516.09;;;10.13;100.00
9249;BME280;4660;41.768;26.198;2023-04-05T12:26:24;100576.69;;;10.27;100.00
9249;BME280;4660;41.768;26.198;2023-04-05T12:28:55;100450.56;;;9.57;100.00
9249;BME280;4660;41.768;26.198;2023-04-05T12:31:44;100563.25;;;10.27;100.00
9249;BME280;4660;41.768;26.198;2023-04-05T12:34:22;100423.97;;;9.45;100.00
9249;BME280;4660;41.768;26.198;2023-04-05T12:36:53;100455.59;;;9.89;100.00
9249;BME280;4660;41.768;26.198;2023-04-05T12:39:22;100462.47;;;10.21;100.00
9249;BME280;4660;41.768;26.198;2023-04-05T12:42:01;100486.66;;;10.40;100.00
9249;BME280;4660;41.768;26.198;2023-04-05T12:44:30;100507.75;;;10.35;100.00
9249;BME280;4660;41.768;26.198;2023-04-05T12:47:04;100469.00;;;10.18;100.00
9249;BME280;4660;41.768;26.198;2023-04-05T12:49:36;100479.16;;;10.34;100.00
9249;BME280;4660;41.768;26.198;2023-04-05T12:52:03;100547.38;;;10.90;100.00
9249;BME280;4660;41.768;26.198;2023-04-05T12:54:32;100548.09;;;11.19;100.00
9249;BME280;4660;41.768;26.198;2023-04-05T12:57:32;100567.47;;;11.33;100.00
9249;BME280;4660;41.768;26.198;2023-04-05T13:00:20;100541.59;;;11.22;100.00
9249;BME280;4660;41.768;26.198;2023-04-05T13:02:56;100554.00;;;11.33;100.00
9249;BME280;4660;41.768;26.198;2023-04-05T13:05:44;100532.69;;;11.12;100.00
9249;BME280;4660;41.768;26.198;2023-04-05T13:08:37;100557.75;;;11.22;100.00
9249;BME280;4660;41.768;26.198;2023-04-05T13:11:06;100545.47;;;11.37;100.00
9249;BME280;4660;41.768;26.198;2023-04-05T13:13:35;100546.91;;;11.32;100.00
9249;BME280;4660;41.768;26.198;2023-04-05T13:16:02;100531.59;;;11.32;100.00
9249;BME280;4660;41.768;26.198;2023-04-05T13:18:29;100555.34;;;11.64;100.00
9249;BME280;4660;41.768;26.198;2023-04-05T13:21:07;100564.41;;;11.45;100.00
9249;BME280;4660;41.768;26.198;2023-04-05T13:23:58;100481.63;;;11.20;100.00
9249;BME280;4660;41.768;26.198;2023-04-05T13:26:33;100521.00;;;11.48;100.00
9249;BME280;4660;41.768;26.198;2023-04-05T13:29:01;100526.94;;;11.52;100.00
9249;BME280;4660;41.768;26.198;2023-04-05T13:31:29;100552.94;;;11.89;100.00
9249;BME280;4660;41.768;26.198;2023-04-05T13:33:56;100568.66;;;11.93;100.00
9249;BME280;4660;41.768;26.198;2023-04-05T13:36:23;100565.22;;;12.01;100.00
9249;BME280;4660;41.768;26.198;2023-04-05T13:38:50;100568.50;;;11.95;100.00
9249;BME280;4660;41.768;26.198;2023-04-05T13:41:40;100552.25;;;11.87;100.00
9249;BME280;4660;41.768;26.198;2023-04-05T13:46:44;100571.31;;;11.75;100.00
9249;BME280;4660;41.768;26.198;2023-04-05T13:58:13;100446.59;;;11.29;100.00
9249;BME280;4660;41.768;26.198;2023-04-05T14:01:07;100534.59;;;11.74;100.00
9249;BME280;4660;41.768;26.198;2023-04-05T14:03:56;100431.72;;;11.25;100.00
9249;BME280;4660;41.768;26.198;2023-04-05T14:27:24;100449.28;;;10.47;100.00
9249;BME280;4660;41.768;26.198;2023-04-05T14:30:56;100425.66;;;10.41;100.00
9249;BME280;4660;41.768;26.198;2023-04-05T14:34:06;100428.66;;;10.28;100.00
9249;BME280;4660;41.768;26.198;2023-04-05T14:37:11;100449.31;;;10.37;100.00
9249;BME280;4660;41.768;26.198;2023-04-05T14:40:01;100438.25;;;10.40;100.00
9249;BME280;4660;41.768;26.198;2023-04-05T14:42:45;100467.94;;;10.58;100.00
9249;BME280;4660;41.768;26.198;2023-04-05T14:56:00;100526.75;;;10.71;100.00
9249;BME280;4660;41.768;26.198;2023-04-05T15:06:47;100469.59;;;10.03;100.00
9249;BME280;4660;41.768;26.198;2023-04-05T15:39:31;100601.06;;;9.56;100.00
9249;BME280;4660;41.768;26.198;2023-04-05T15:48:20;100624.44;;;9.84;100.00
9249;BME280;4660;41.768;26.198;2023-04-05T15:58:42;100569.28;;;9.71;100.00
9249;BME280;4660;41.768;26.198;2023-04-05T16:11:48;100616.28;;;10.05;100.00
9249;BME280;4660;41.768;26.198;2023-04-05T16:15:18;100506.63;;;9.31;100.00
9249;BME280;4660;41.768;26.198;2023-04-05T16:18:32;100561.63;;;9.56;100.00
9249;BME280;4660;41.768;26.198;2023-04-05T16:21:06;100536.31;;;9.40;100.00
9249;BME280;4660;41.768;26.198;2023-04-05T16:23:48;100618.91;;;9.67;100.00
9249;BME280;4660;41.768;26.198;2023-04-05T16:27:13;100590.41;;;9.35;100.00
9249;BME280;4660;41.768;26.198;2023-04-05T16:30:28;100510.06;;;8.93;100.00
9249;BME280;4660;41.768;26.198;2023-04-05T16:53:23;100563.72;;;8.93;100.00
9249;BME280;4660;41.768;26.198;2023-04-05T16:56:03;100508.88;;;8.55;100.00
9249;BME280;4660;41.768;26.198;2023-04-05T16:58:36;100559.13;;;8.84;100.00
9249;BME280;4660;41.768;26.198;2023-04-05T17:09:29;100653.84;;;9.05;100.00